Friday, January 19, 2018, 4:03 AM GMT
Back to Local

CYSC, Sherbrooke, Que.

Location: , , Canada Lat: 45.4
Local Time: 4:03 AM GMT ( 4:03 GMT) Lon: -71.883
Time Zone: GMT Elev: 557 ft

Show me the last for .
Show Decoded

2018-01-19 03:54 METAR CYSC 190354Z AUTO 21003KT 190V260 9SM -SN OVC013 M06/M07 A2987 RMK SLP131
                 =
2018-01-19 03:00 METAR CYSC 190300Z AUTO 25005KT 7SM OVC013 M05/M07 A2987 RMK SLP130 =
2018-01-19 02:00 METAR CYSC 190200Z AUTO 25005KT 9SM OVC013 M05/M08 A2986 RMK SLP129 =
2018-01-19 01:00 METAR CYSC 190100Z AUTO 26005KT 9SM OVC015 M05/M08 A2986 RMK SLP129 =
2018-01-19 00:07 METAR CYSC 190007Z AUTO 27007KT 9SM OVC015 M05/M08 A2986 RMK SLP127 =
2018-01-19 00:00 METAR CYSC 190000Z AUTO 27008KT 9SM -SN OVC015 M05/M08 A2986 RMK SLP127 =
2018-01-18 23:27 METAR CYSC 182327Z AUTO 25005KT 9SM -SN OVC017 M05/M08 A2986 RMK SLP129 =
2018-01-18 23:00 METAR CYSC 182300Z AUTO 26008KT 9SM OVC019 M05/M08 A2986 RMK SLP128 =
2018-01-18 22:00 METAR CYSC 182200Z AUTO 26006KT 9SM OVC019 M05/M08 A2985 RMK SLP124 =
2018-01-18 21:23 METAR CYSC 182123Z AUTO 25007KT 9SM OVC019 M05/M08 A2984 RMK SLP122 =
2018-01-18 21:00 METAR CYSC 182100Z AUTO 24006KT 7SM -SN OVC019 M05/M08 A2984 RMK SLP122 =
2018-01-18 20:40 METAR CYSC 182040Z AUTO 25005KT 9SM -SN OVC019 M05/M08 A2984 RMK SLP122 =
2018-01-18 20:35 METAR CYSC 182035Z AUTO 23006KT 9SM OVC019 M05/M08 A2984 RMK SLP122 =
2018-01-18 20:25 METAR CYSC 182025Z AUTO 23006KT 9SM -SN OVC019 M05/M08 A2984 RMK SLP121 =
2018-01-18 20:00 METAR CYSC 182000Z AUTO 24006KT 9SM OVC019 M05/M08 A2984 RMK SLP122 =
2018-01-18 19:52 METAR CYSC 181952Z AUTO 23007KT 9SM OVC019 M05/M08 A2984 RMK SLP122 =
2018-01-18 19:40 METAR CYSC 181940Z AUTO 23007KT 9SM -SN OVC019 M05/M08 A2984 RMK SLP122 =
2018-01-18 19:35 METAR CYSC 181935Z AUTO 23005KT 9SM OVC019 M05/M08 A2984 RMK SLP122 =
2018-01-18 19:00 METAR CYSC 181900Z AUTO 25007KT 9SM -SN OVC019 M05/M08 A2984 RMK SLP120 =
2018-01-18 18:20 METAR CYSC 181820Z AUTO 24009KT 9SM -SN OVC019 M05/M09 A2984 RMK SLP122 =
2018-01-18 18:00 METAR CYSC 181800Z AUTO 26009KT 9SM OVC019 M05/M09 A2985 RMK SLP123 =
2018-01-18 17:44 METAR CYSC 181744Z AUTO 26010G15KT 9SM OVC019 M05/M09 A2985 RMK SLP124 =
2018-01-18 17:25 METAR CYSC 181725Z AUTO 25008KT 9SM -SN OVC019 M05/M09 A2985 RMK SLP124 =
2018-01-18 17:23 METAR CYSC 181723Z AUTO 25008G16KT 9SM OVC019 M05/M09 A2985 RMK SLP124 =
2018-01-18 17:00 METAR CYSC 181700Z AUTO 24008G16KT 9SM -SN OVC019 M05/M09 A2985 RMK SLP126 =
2018-01-18 16:00 METAR CYSC 181600Z AUTO 23006KT 9SM -SN OVC019 M06/M09 A2988 RMK SLP133 =
2018-01-18 15:02 METAR CYSC 181502Z AUTO 22006KT 6SM -SN OVC021 M07/M09 A2989 RMK SLP138 =
2018-01-18 15:00 METAR CYSC 181500Z AUTO 23007KT 5SM -SN OVC023 M07/M09 A2989 RMK SLP138 =
2018-01-18 14:13 METAR CYSC 181413Z AUTO 22006KT 4SM -SN SCT017 OVC023 M07/M09 A2988 RMK SLP137 =
2018-01-18 14:11 METAR CYSC 181411Z AUTO 21004KT 180V250 4SM -SN SCT017 OVC025 M07/M09 A2988 RMK
                 SLP137 =
2018-01-18 14:00 METAR CYSC 181400Z AUTO 22006KT 4SM -SN BKN017 OVC025 M07/M09 A2988 RMK SLP137 =
2018-01-18 13:54 METAR CYSC 181354Z AUTO 22007KT 4SM -SN BKN017 OVC025 M07/M09 A2988 RMK SLP137 =
2018-01-18 13:44 METAR CYSC 181344Z AUTO 22008KT 4SM -SN SCT017 OVC025 M07/M09 A2988 RMK SLP136 =
2018-01-18 13:15 METAR CYSC 181315Z AUTO 21006KT 5SM -SN SCT017 OVC023 M08/M10 A2988 RMK SLP137
2018-01-18 13:00 METAR CYSC 181300Z AUTO 22006KT 6SM -SN OVC023 M08/M10 A2988 RMK SLP137 =
2018-01-18 12:47 METAR CYSC 181247Z AUTO 22007KT 8SM -SN BKN023 OVC035 M08/M10 A2988 RMK SLP137 =
2018-01-18 12:00 METAR CYSC 181200Z AUTO 23006KT 9SM -SN FEW025 OVC033 M08/M10 A2989 RMK SLP138 =
2018-01-18 11:00 METAR CYSC 181100Z AUTO 20006KT 7SM -SN FEW019 OVC035 M08/M11 A2989 RMK SLP139 =
2018-01-18 10:00 METAR CYSC 181000Z AUTO 21007KT 7SM -SN FEW019 BKN031 BKN035 M08/M11 A2991 RMK
                 SLP144 =
2018-01-18 09:47 METAR CYSC 180947Z AUTO 22007KT 6SM -SN SCT019 BKN031 M08/M11 A2991 RMK SLP146 =
2018-01-18 09:19 METAR CYSC 180919Z AUTO 21008KT 6SM -SN BKN017 BKN029 M08/M11 A2992 RMK SLP148 =
2018-01-18 09:00 METAR CYSC 180900Z AUTO 21007KT 5SM -SN BKN017 OVC025 M08/M11 A2992 RMK SLP148 =
2018-01-18 08:56 METAR CYSC 180856Z AUTO 21007KT 5SM -SN BKN017 OVC025 M08/M11 A2992 RMK SLP149 =
2018-01-18 08:42 METAR CYSC 180842Z AUTO 20007KT 5SM -SN FEW017 OVC025 M08/M11 A2993 RMK SLP152 =
2018-01-18 08:29 METAR CYSC 180829Z AUTO 19006KT 6SM -SN FEW019 OVC027 M08/M11 A2994 RMK SLP156 =
2018-01-18 08:23 METAR CYSC 180823Z AUTO 20006KT 5SM -SN FEW017 OVC027 M08/M11 A2994 RMK SLP157 =
2018-01-18 08:00 METAR CYSC 180800Z AUTO 22006KT 9SM -SN OVC029 M08/M12 A2996 RMK SLP161 =
2018-01-18 07:29 METAR CYSC 180729Z AUTO 21004KT 9SM -SN OVC029 M09/M12 A2996 RMK SLP162 =
2018-01-18 07:00 METAR CYSC 180700Z AUTO 20005KT 9SM OVC029 M09/M12 A2996 RMK SLP162 =
2018-01-18 06:00 METAR CYSC 180600Z AUTO 23003KT 9SM FEW130 M10/M12 A2996 RMK SLP163 =
2018-01-18 05:00 METAR CYSC 180500Z AUTO 22003KT 9SM BKN130 BKN250 M09/M11 A2998 RMK SLP170 =

Support USWX by starting your Amazon purchase here.